sensor_id;sensor_type;location;lat;lon;timestamp;pressure;altitude;pressure_sealevel;temperature;humidity
47082;BME280;33066;49.296;14.470;2022-07-23T00:01:31;97028.02;;;29.21;33.86
47082;BME280;33066;49.296;14.470;2022-07-23T00:03:58;97022.10;;;29.29;33.74
47082;BME280;33066;49.296;14.470;2022-07-23T00:06:24;97021.39;;;28.99;33.81
47082;BME280;33066;49.296;14.470;2022-07-23T00:08:49;97022.80;;;29.15;33.86
47082;BME280;33066;49.296;14.470;2022-07-23T00:11:14;97020.78;;;28.84;33.61
47082;BME280;33066;49.296;14.470;2022-07-23T00:13:39;97013.87;;;29.04;33.61
47082;BME280;33066;49.296;14.470;2022-07-23T00:16:05;97005.62;;;29.04;33.57
47082;BME280;33066;49.296;14.470;2022-07-23T00:18:30;97002.18;;;29.01;33.99
47082;BME280;33066;49.296;14.470;2022-07-23T00:20:56;97007.98;;;28.95;34.37
47082;BME280;33066;49.296;14.470;2022-07-23T00:23:21;97015.57;;;28.91;33.85
47082;BME280;33066;49.296;14.470;2022-07-23T00:25:47;97015.85;;;28.76;33.71
47082;BME280;33066;49.296;14.470;2022-07-23T00:28:13;97007.33;;;28.66;33.73
47082;BME280;33066;49.296;14.470;2022-07-23T00:30:38;96997.74;;;28.85;33.73
47082;BME280;33066;49.296;14.470;2022-07-23T00:33:05;96993.97;;;28.57;33.86
47082;BME280;33066;49.296;14.470;2022-07-23T00:35:32;96995.10;;;28.76;33.96
47082;BME280;33066;49.296;14.470;2022-07-23T00:37:55;96997.29;;;28.63;33.94
47082;BME280;33066;49.296;14.470;2022-07-23T00:40:20;96996.48;;;28.68;33.87
47082;BME280;33066;49.296;14.470;2022-07-23T00:42:45;96994.55;;;28.93;33.89
47082;BME280;33066;49.296;14.470;2022-07-23T00:45:11;96996.11;;;28.74;34.10
47082;BME280;33066;49.296;14.470;2022-07-23T00:47:37;96991.46;;;28.72;34.09
47082;BME280;33066;49.296;14.470;2022-07-23T00:50:03;96990.02;;;28.67;34.23
47082;BME280;33066;49.296;14.470;2022-07-23T00:52:26;96992.48;;;28.67;34.48
47082;BME280;33066;49.296;14.470;2022-07-23T00:54:52;96985.44;;;28.63;34.42
47082;BME280;33066;49.296;14.470;2022-07-23T00:57:18;96980.88;;;28.55;34.50
47082;BME280;33066;49.296;14.470;2022-07-23T00:59:44;96975.95;;;28.48;34.67
47082;BME280;33066;49.296;14.470;2022-07-23T01:02:08;96972.06;;;28.76;34.62
47082;BME280;33066;49.296;14.470;2022-07-23T01:04:34;96965.87;;;28.55;34.57
47082;BME280;33066;49.296;14.470;2022-07-23T01:07:00;96964.92;;;28.54;34.62
47082;BME280;33066;49.296;14.470;2022-07-23T01:09:24;96965.15;;;28.73;34.74
47082;BME280;33066;49.296;14.470;2022-07-23T01:11:50;96963.78;;;28.44;34.81
47082;BME280;33066;49.296;14.470;2022-07-23T01:14:17;96957.78;;;28.85;34.85
47082;BME280;33066;49.296;14.470;2022-07-23T01:16:41;96955.68;;;28.34;34.81
47082;BME280;33066;49.296;14.470;2022-07-23T01:19:06;96956.46;;;28.65;34.71
47082;BME280;33066;49.296;14.470;2022-07-23T01:21:32;96956.99;;;28.65;34.81
47082;BME280;33066;49.296;14.470;2022-07-23T01:23:57;96957.18;;;28.44;34.61
47082;BME280;33066;49.296;14.470;2022-07-23T01:26:23;96954.35;;;28.39;34.79
47082;BME280;33066;49.296;14.470;2022-07-23T01:28:48;96952.97;;;28.33;34.93
47082;BME280;33066;49.296;14.470;2022-07-23T01:31:14;96947.31;;;28.49;35.07
47082;BME280;33066;49.296;14.470;2022-07-23T01:33:40;96946.03;;;28.27;35.08
47082;BME280;33066;49.296;14.470;2022-07-23T01:36:06;96946.82;;;28.43;35.18
47082;BME280;33066;49.296;14.470;2022-07-23T01:38:30;96937.93;;;28.15;35.24
47082;BME280;33066;49.296;14.470;2022-07-23T01:40:56;96935.18;;;28.62;35.28
47082;BME280;33066;49.296;14.470;2022-07-23T01:43:21;96935.04;;;28.59;35.31
47082;BME280;33066;49.296;14.470;2022-07-23T01:45:47;96931.90;;;28.35;35.26
47082;BME280;33066;49.296;14.470;2022-07-23T01:48:12;96935.70;;;28.59;34.93
47082;BME280;33066;49.296;14.470;2022-07-23T01:50:37;96941.01;;;28.34;34.92
47082;BME280;33066;49.296;14.470;2022-07-23T01:53:03;96941.39;;;28.21;34.86
47082;BME280;33066;49.296;14.470;2022-07-23T01:55:28;96939.06;;;28.12;34.91
47082;BME280;33066;49.296;14.470;2022-07-23T01:57:54;96936.98;;;28.03;35.01
47082;BME280;33066;49.296;14.470;2022-07-23T02:00:19;96934.80;;;28.04;35.02
47082;BME280;33066;49.296;14.470;2022-07-23T02:02:45;96933.35;;;28.18;34.92
47082;BME280;33066;49.296;14.470;2022-07-23T02:05:10;96937.20;;;28.40;35.15
47082;BME280;33066;49.296;14.470;2022-07-23T02:07:35;96936.39;;;28.10;35.19
47082;BME280;33066;49.296;14.470;2022-07-23T02:10:01;96937.25;;;28.05;35.09
47082;BME280;33066;49.296;14.470;2022-07-23T02:12:27;96938.82;;;28.01;35.33
47082;BME280;33066;49.296;14.470;2022-07-23T02:14:52;96941.23;;;28.30;35.42
47082;BME280;33066;49.296;14.470;2022-07-23T02:17:18;96939.66;;;28.27;35.50
47082;BME280;33066;49.296;14.470;2022-07-23T02:19:43;96938.83;;;28.29;35.59
47082;BME280;33066;49.296;14.470;2022-07-23T02:22:08;96945.29;;;28.01;35.36
47082;BME280;33066;49.296;14.470;2022-07-23T02:24:34;96947.84;;;28.05;35.16
47082;BME280;33066;49.296;14.470;2022-07-23T02:26:59;96953.12;;;28.29;35.07
47082;BME280;33066;49.296;14.470;2022-07-23T02:29:24;96952.44;;;28.28;35.00
47082;BME280;33066;49.296;14.470;2022-07-23T02:31:49;96953.80;;;28.06;35.03
47082;BME280;33066;49.296;14.470;2022-07-23T02:34:15;96951.94;;;28.05;35.12
47082;BME280;33066;49.296;14.470;2022-07-23T02:36:40;96954.36;;;28.02;35.20
47082;BME280;33066;49.296;14.470;2022-07-23T02:39:05;96954.76;;;27.95;35.17
47082;BME280;33066;49.296;14.470;2022-07-23T02:41:31;96948.03;;;28.12;35.11
47082;BME280;33066;49.296;14.470;2022-07-23T02:43:56;96944.94;;;28.09;35.10
47082;BME280;33066;49.296;14.470;2022-07-23T02:46:22;96940.28;;;27.92;35.14
47082;BME280;33066;49.296;14.470;2022-07-23T02:48:48;96939.86;;;27.95;35.25
47082;BME280;33066;49.296;14.470;2022-07-23T02:51:13;96940.73;;;27.70;35.47
47082;BME280;33066;49.296;14.470;2022-07-23T02:53:38;96940.12;;;28.19;35.50
47082;BME280;33066;49.296;14.470;2022-07-23T02:56:04;96941.65;;;27.85;35.62
47082;BME280;33066;49.296;14.470;2022-07-23T02:58:29;96938.46;;;27.74;35.72
47082;BME280;33066;49.296;14.470;2022-07-23T03:00:55;96933.17;;;27.92;35.92
47082;BME280;33066;49.296;14.470;2022-07-23T03:03:20;96933.06;;;27.91;36.07
47082;BME280;33066;49.296;14.470;2022-07-23T03:05:45;96930.67;;;27.86;36.21
47082;BME280;33066;49.296;14.470;2022-07-23T03:08:11;96922.40;;;27.59;36.31
47082;BME280;33066;49.296;14.470;2022-07-23T03:13:00;96905.87;;;27.37;35.52
47082;BME280;33066;49.296;14.470;2022-07-23T03:15:26;96899.72;;;28.45;35.23
47082;BME280;33066;49.296;14.470;2022-07-23T03:17:51;96906.22;;;28.03;35.54
47082;BME280;33066;49.296;14.470;2022-07-23T03:20:16;96907.17;;;27.99;35.74
47082;BME280;33066;49.296;14.470;2022-07-23T03:22:41;96911.25;;;28.07;36.18
47082;BME280;33066;49.296;14.470;2022-07-23T03:25:08;96914.53;;;27.75;36.29
47082;BME280;33066;49.296;14.470;2022-07-23T03:27:32;96916.07;;;27.90;35.99
47082;BME280;33066;49.296;14.470;2022-07-23T03:29:59;96915.42;;;27.79;35.87
47082;BME280;33066;49.296;14.470;2022-07-23T03:32:24;96917.41;;;27.74;35.89
47082;BME280;33066;49.296;14.470;2022-07-23T03:34:49;96922.88;;;27.43;35.85
47082;BME280;33066;49.296;14.470;2022-07-23T03:37:15;96926.62;;;27.63;36.07
47082;BME280;33066;49.296;14.470;2022-07-23T03:39:40;96923.74;;;27.63;36.08
47082;BME280;33066;49.296;14.470;2022-07-23T03:42:07;96918.26;;;27.52;35.93
47082;BME280;33066;49.296;14.470;2022-07-23T03:44:32;96915.22;;;27.52;35.78
47082;BME280;33066;49.296;14.470;2022-07-23T03:46:57;96920.28;;;27.51;35.67
47082;BME280;33066;49.296;14.470;2022-07-23T03:49:22;96920.11;;;27.58;35.57
47082;BME280;33066;49.296;14.470;2022-07-23T03:51:47;96918.28;;;27.66;35.42
47082;BME280;33066;49.296;14.470;2022-07-23T03:54:13;96918.44;;;27.63;35.41
47082;BME280;33066;49.296;14.470;2022-07-23T03:56:37;96919.26;;;27.37;35.41
47082;BME280;33066;49.296;14.470;2022-07-23T03:59:03;96920.04;;;27.62;35.43
47082;BME280;33066;49.296;14.470;2022-07-23T04:01:28;96916.58;;;27.61;35.39
47082;BME280;33066;49.296;14.470;2022-07-23T04:03:53;96910.53;;;27.70;35.39
47082;BME280;33066;49.296;14.470;2022-07-23T04:06:19;96907.92;;;27.77;35.30
47082;BME280;33066;49.296;14.470;2022-07-23T04:08:44;96908.57;;;27.86;35.22
47082;BME280;33066;49.296;14.470;2022-07-23T04:11:10;96906.41;;;27.69;35.14
47082;BME280;33066;49.296;14.470;2022-07-23T04:13:36;96902.75;;;27.91;35.22
47082;BME280;33066;49.296;14.470;2022-07-23T04:16:01;96907.11;;;27.76;35.39
47082;BME280;33066;49.296;14.470;2022-07-23T04:18:28;96921.39;;;27.77;35.66
47082;BME280;33066;49.296;14.470;2022-07-23T04:20:52;96936.99;;;27.56;35.32
47082;BME280;33066;49.296;14.470;2022-07-23T04:23:19;96935.46;;;27.77;35.32
47082;BME280;33066;49.296;14.470;2022-07-23T04:25:44;96930.17;;;27.76;35.31
47082;BME280;33066;49.296;14.470;2022-07-23T04:28:09;96937.17;;;27.77;35.27
47082;BME280;33066;49.296;14.470;2022-07-23T04:30:33;96944.12;;;27.76;35.09
47082;BME280;33066;49.296;14.470;2022-07-23T04:32:59;96951.38;;;27.62;35.74
47082;BME280;33066;49.296;14.470;2022-07-23T04:35:24;96943.52;;;27.54;36.12
47082;BME280;33066;49.296;14.470;2022-07-23T04:37:50;96950.92;;;27.47;36.30
47082;BME280;33066;49.296;14.470;2022-07-23T04:40:15;96956.27;;;27.36;36.43
47082;BME280;33066;49.296;14.470;2022-07-23T04:42:40;96953.39;;;27.71;36.26
47082;BME280;33066;49.296;14.470;2022-07-23T04:45:06;96951.50;;;27.50;36.22
47082;BME280;33066;49.296;14.470;2022-07-23T04:47:31;96952.23;;;27.58;36.06
47082;BME280;33066;49.296;14.470;2022-07-23T04:49:57;96959.12;;;27.62;35.91
47082;BME280;33066;49.296;14.470;2022-07-23T04:52:25;96975.00;;;27.71;35.72
47082;BME280;33066;49.296;14.470;2022-07-23T04:54:49;96988.50;;;27.56;35.48
47082;BME280;33066;49.296;14.470;2022-07-23T04:57:13;96992.28;;;27.97;35.25
47082;BME280;33066;49.296;14.470;2022-07-23T04:59:38;96986.88;;;28.05;35.21
47082;BME280;33066;49.296;14.470;2022-07-23T05:02:03;96971.70;;;27.92;35.19
47082;BME280;33066;49.296;14.470;2022-07-23T05:04:29;96971.58;;;28.03;35.23
47082;BME280;33066;49.296;14.470;2022-07-23T05:06:55;96974.94;;;28.11;35.20
47082;BME280;33066;49.296;14.470;2022-07-23T05:09:20;96985.36;;;28.35;35.36
47082;BME280;33066;49.296;14.470;2022-07-23T05:11:48;96991.24;;;27.93;35.22
47082;BME280;33066;49.296;14.470;2022-07-23T05:14:13;96997.29;;;28.40;35.06
47082;BME280;33066;49.296;14.470;2022-07-23T05:16:37;96988.94;;;28.25;34.95
47082;BME280;33066;49.296;14.470;2022-07-23T05:19:02;96987.99;;;28.16;34.90
47082;BME280;33066;49.296;14.470;2022-07-23T05:21:27;96988.52;;;28.38;35.01
47082;BME280;33066;49.296;14.470;2022-07-23T05:23:53;96979.27;;;28.64;34.97
47082;BME280;33066;49.296;14.470;2022-07-23T05:26:18;96987.13;;;28.72;34.93
47082;BME280;33066;49.296;14.470;2022-07-23T05:28:44;96991.37;;;28.81;34.80
47082;BME280;33066;49.296;14.470;2022-07-23T05:31:10;96985.20;;;28.44;34.61
47082;BME280;33066;49.296;14.470;2022-07-23T05:33:42;96993.60;;;28.58;34.68
47082;BME280;33066;49.296;14.470;2022-07-23T05:36:02;96984.00;;;28.61;34.40
47082;BME280;33066;49.296;14.470;2022-07-23T05:38:27;96978.60;;;28.91;34.44
47082;BME280;33066;49.296;14.470;2022-07-23T05:40:51;96976.20;;;28.69;34.52
47082;BME280;33066;49.296;14.470;2022-07-23T05:43:17;96983.71;;;28.71;34.46
47082;BME280;33066;49.296;14.470;2022-07-23T05:45:42;96979.03;;;28.77;34.36
47082;BME280;33066;49.296;14.470;2022-07-23T05:48:08;96977.95;;;28.85;34.37
47082;BME280;33066;49.296;14.470;2022-07-23T05:50:34;96981.70;;;28.92;34.43
47082;BME280;33066;49.296;14.470;2022-07-23T05:52:59;96971.05;;;29.05;34.23
47082;BME280;33066;49.296;14.470;2022-07-23T05:55:24;96960.70;;;29.12;34.34
47082;BME280;33066;49.296;14.470;2022-07-23T05:57:49;96955.25;;;28.95;34.52
47082;BME280;33066;49.296;14.470;2022-07-23T06:00:15;96962.09;;;28.95;34.36
47082;BME280;33066;49.296;14.470;2022-07-23T06:02:40;96971.46;;;29.30;34.15
47082;BME280;33066;49.296;14.470;2022-07-23T06:05:08;96973.30;;;29.24;34.01
47082;BME280;33066;49.296;14.470;2022-07-23T06:07:31;96974.49;;;29.41;33.99
47082;BME280;33066;49.296;14.470;2022-07-23T06:09:57;96972.49;;;29.41;33.85
47082;BME280;33066;49.296;14.470;2022-07-23T06:12:23;96967.75;;;29.46;33.89
47082;BME280;33066;49.296;14.470;2022-07-23T06:14:48;96967.96;;;29.39;33.87
47082;BME280;33066;49.296;14.470;2022-07-23T06:17:13;96968.31;;;29.50;34.02
47082;BME280;33066;49.296;14.470;2022-07-23T06:19:38;96970.54;;;29.37;33.95
47082;BME280;33066;49.296;14.470;2022-07-23T06:22:06;96970.86;;;29.46;33.96
47082;BME280;33066;49.296;14.470;2022-07-23T06:24:29;96971.82;;;29.50;33.93
47082;BME280;33066;49.296;14.470;2022-07-23T06:26:54;96979.48;;;29.43;33.47
47082;BME280;33066;49.296;14.470;2022-07-23T06:29:22;96982.75;;;29.86;33.54
47082;BME280;33066;49.296;14.470;2022-07-23T06:31:45;96983.70;;;29.73;33.21
47082;BME280;33066;49.296;14.470;2022-07-23T06:34:10;96978.43;;;29.51;33.00
47082;BME280;33066;49.296;14.470;2022-07-23T06:36:38;96970.47;;;29.72;33.40
47082;BME280;33066;49.296;14.470;2022-07-23T06:39:02;96971.57;;;29.67;33.66
47082;BME280;33066;49.296;14.470;2022-07-23T06:41:26;96965.29;;;29.71;34.07
47082;BME280;33066;49.296;14.470;2022-07-23T06:43:51;96959.90;;;29.25;34.17
47082;BME280;33066;49.296;14.470;2022-07-23T06:46:17;96965.35;;;29.79;34.29
47082;BME280;33066;49.296;14.470;2022-07-23T06:48:44;96972.82;;;29.42;34.43
47082;BME280;33066;49.296;14.470;2022-07-23T06:51:08;96975.69;;;29.47;34.46
47082;BME280;33066;49.296;14.470;2022-07-23T06:53:34;96971.43;;;29.80;34.35
47082;BME280;33066;49.296;14.470;2022-07-23T06:55:59;96969.43;;;29.71;34.28
47082;BME280;33066;49.296;14.470;2022-07-23T06:58:24;96967.71;;;29.80;34.35
47082;BME280;33066;49.296;14.470;2022-07-23T07:00:50;96966.39;;;29.78;34.42
47082;BME280;33066;49.296;14.470;2022-07-23T07:03:16;96968.17;;;29.76;34.32
47082;BME280;33066;49.296;14.470;2022-07-23T07:05:40;96969.47;;;29.76;34.05
47082;BME280;33066;49.296;14.470;2022-07-23T07:08:06;96974.27;;;29.89;33.93
47082;BME280;33066;49.296;14.470;2022-07-23T07:10:32;96973.04;;;29.61;34.07
47082;BME280;33066;49.296;14.470;2022-07-23T07:12:57;96974.46;;;29.56;33.75
47082;BME280;33066;49.296;14.470;2022-07-23T07:15:23;96974.11;;;29.51;33.69
47082;BME280;33066;49.296;14.470;2022-07-23T07:17:49;96974.99;;;29.61;33.68
47082;BME280;33066;49.296;14.470;2022-07-23T07:20:15;96977.86;;;29.61;33.67
47082;BME280;33066;49.296;14.470;2022-07-23T07:22:40;96980.42;;;29.68;33.84
47082;BME280;33066;49.296;14.470;2022-07-23T07:25:07;96976.30;;;29.75;33.86
47082;BME280;33066;49.296;14.470;2022-07-23T07:27:32;96970.28;;;30.00;33.97
47082;BME280;33066;49.296;14.470;2022-07-23T07:29:58;96975.33;;;29.83;33.99
47082;BME280;33066;49.296;14.470;2022-07-23T07:32:23;96982.87;;;29.80;33.90
47082;BME280;33066;49.296;14.470;2022-07-23T07:34:49;96987.33;;;29.82;34.00
47082;BME280;33066;49.296;14.470;2022-07-23T07:37:14;96987.44;;;29.88;34.63
47082;BME280;33066;49.296;14.470;2022-07-23T07:39:40;96987.16;;;29.81;34.88
47082;BME280;33066;49.296;14.470;2022-07-23T07:42:06;96984.18;;;29.89;34.76
47082;BME280;33066;49.296;14.470;2022-07-23T07:44:31;96985.42;;;29.98;34.69
47082;BME280;33066;49.296;14.470;2022-07-23T07:46:57;96983.23;;;30.05;34.83
47082;BME280;33066;49.296;14.470;2022-07-23T07:49:23;96987.75;;;29.91;34.80
47082;BME280;33066;49.296;14.470;2022-07-23T07:51:48;96989.28;;;30.13;34.64
47082;BME280;33066;49.296;14.470;2022-07-23T07:54:13;96992.06;;;30.13;34.58
47082;BME280;33066;49.296;14.470;2022-07-23T07:56:39;96994.72;;;30.06;34.66
47082;BME280;33066;49.296;14.470;2022-07-23T07:59:05;97000.15;;;30.25;35.12
47082;BME280;33066;49.296;14.470;2022-07-23T08:01:30;97008.20;;;29.95;34.99
47082;BME280;33066;49.296;14.470;2022-07-23T08:03:56;97015.03;;;30.12;35.02
47082;BME280;33066;49.296;14.470;2022-07-23T08:06:21;97025.04;;;30.11;35.05
47082;BME280;33066;49.296;14.470;2022-07-23T08:08:47;97031.08;;;30.04;35.07
47082;BME280;33066;49.296;14.470;2022-07-23T08:11:12;97024.05;;;30.12;35.06
47082;BME280;33066;49.296;14.470;2022-07-23T08:13:38;97041.42;;;29.80;35.12
47082;BME280;33066;49.296;14.470;2022-07-23T08:16:04;97033.14;;;30.02;35.25
47082;BME280;33066;49.296;14.470;2022-07-23T08:18:30;97032.59;;;30.01;35.27
47082;BME280;33066;49.296;14.470;2022-07-23T08:20:55;97016.20;;;30.22;34.77
47082;BME280;33066;49.296;14.470;2022-07-23T08:23:20;97007.19;;;30.38;34.92
47082;BME280;33066;49.296;14.470;2022-07-23T08:25:46;97021.02;;;30.26;34.83
47082;BME280;33066;49.296;14.470;2022-07-23T08:28:13;97020.56;;;30.18;34.71
47082;BME280;33066;49.296;14.470;2022-07-23T08:30:38;97021.91;;;30.46;34.52
47082;BME280;33066;49.296;14.470;2022-07-23T08:33:04;97022.80;;;30.45;34.38
47082;BME280;33066;49.296;14.470;2022-07-23T08:35:29;97024.12;;;30.34;34.54
47082;BME280;33066;49.296;14.470;2022-07-23T08:37:53;97025.81;;;30.17;34.58
47082;BME280;33066;49.296;14.470;2022-07-23T08:40:19;97029.57;;;30.38;34.24
47082;BME280;33066;49.296;14.470;2022-07-23T08:42:45;97031.92;;;30.60;34.51
47082;BME280;33066;49.296;14.470;2022-07-23T08:45:10;97031.61;;;30.74;34.34
47082;BME280;33066;49.296;14.470;2022-07-23T08:47:37;97031.01;;;30.77;34.10
47082;BME280;33066;49.296;14.470;2022-07-23T08:50:01;97036.61;;;30.97;33.91
47082;BME280;33066;49.296;14.470;2022-07-23T08:52:29;97027.16;;;30.66;34.07
47082;BME280;33066;49.296;14.470;2022-07-23T08:54:53;97025.91;;;31.06;33.14
47082;BME280;33066;49.296;14.470;2022-07-23T08:57:17;97021.80;;;31.00;33.08
47082;BME280;33066;49.296;14.470;2022-07-23T08:59:42;97017.53;;;31.13;33.03
47082;BME280;33066;49.296;14.470;2022-07-23T09:02:08;97016.97;;;31.27;32.75
47082;BME280;33066;49.296;14.470;2022-07-23T09:04:34;97019.34;;;31.41;32.73
47082;BME280;33066;49.296;14.470;2022-07-23T09:06:59;97019.35;;;31.34;32.62
47082;BME280;33066;49.296;14.470;2022-07-23T09:09:24;97026.98;;;31.27;31.59
47082;BME280;33066;49.296;14.470;2022-07-23T09:14:15;97034.04;;;31.17;31.89
47082;BME280;33066;49.296;14.470;2022-07-23T09:16:40;97037.41;;;31.32;31.73
47082;BME280;33066;49.296;14.470;2022-07-23T09:19:07;97035.26;;;31.37;31.87
47082;BME280;33066;49.296;14.470;2022-07-23T09:21:33;97036.55;;;31.52;31.88
47082;BME280;33066;49.296;14.470;2022-07-23T09:23:59;97029.27;;;31.39;30.51
47082;BME280;33066;49.296;14.470;2022-07-23T09:26:25;97020.82;;;31.28;30.21
47082;BME280;33066;49.296;14.470;2022-07-23T09:28:53;97021.73;;;31.54;30.43
47082;BME280;33066;49.296;14.470;2022-07-23T09:31:13;97022.03;;;31.53;30.28
47082;BME280;33066;49.296;14.470;2022-07-23T09:33:39;97022.73;;;31.58;30.40
47082;BME280;33066;49.296;14.470;2022-07-23T09:36:05;97025.00;;;31.53;30.40
47082;BME280;33066;49.296;14.470;2022-07-23T09:38:30;97032.21;;;31.36;30.19
47082;BME280;33066;49.296;14.470;2022-07-23T09:41:06;97030.29;;;31.39;30.50
47082;BME280;33066;49.296;14.470;2022-07-23T09:43:27;97025.28;;;31.80;30.34
47082;BME280;33066;49.296;14.470;2022-07-23T09:45:48;97031.31;;;31.81;30.23
47082;BME280;33066;49.296;14.470;2022-07-23T09:48:13;97029.84;;;32.26;29.88
47082;BME280;33066;49.296;14.470;2022-07-23T09:50:37;97028.09;;;32.17;30.09
47082;BME280;33066;49.296;14.470;2022-07-23T09:53:02;97031.00;;;31.95;29.90
47082;BME280;33066;49.296;14.470;2022-07-23T09:55:32;97013.69;;;32.27;27.16
47082;BME280;33066;49.296;14.470;2022-07-23T09:57:53;97008.74;;;32.03;27.71
47082;BME280;33066;49.296;14.470;2022-07-23T10:00:19;97011.43;;;32.07;26.61
47082;BME280;33066;49.296;14.470;2022-07-23T10:02:46;97001.04;;;32.55;26.73
47082;BME280;33066;49.296;14.470;2022-07-23T10:05:09;96999.00;;;32.61;25.55
47082;BME280;33066;49.296;14.470;2022-07-23T10:07:38;96993.42;;;32.32;24.89
47082;BME280;33066;49.296;14.470;2022-07-23T10:10:02;96992.93;;;32.72;24.96
47082;BME280;33066;49.296;14.470;2022-07-23T10:12:25;96986.74;;;32.77;25.30
47082;BME280;33066;49.296;14.470;2022-07-23T10:14:51;96984.92;;;32.64;24.45
47082;BME280;33066;49.296;14.470;2022-07-23T10:17:16;96986.98;;;33.09;24.39
47082;BME280;33066;49.296;14.470;2022-07-23T10:19:43;96990.52;;;33.31;24.18
47082;BME280;33066;49.296;14.470;2022-07-23T10:22:09;96993.33;;;33.16;24.88
47082;BME280;33066;49.296;14.470;2022-07-23T10:24:46;96997.04;;;33.27;25.04
47082;BME280;33066;49.296;14.470;2022-07-23T10:27:08;96995.97;;;33.66;23.94
47082;BME280;33066;49.296;14.470;2022-07-23T10:29:33;96999.62;;;33.89;24.64
47082;BME280;33066;49.296;14.470;2022-07-23T10:31:56;96995.43;;;34.09;23.78
47082;BME280;33066;49.296;14.470;2022-07-23T10:34:18;96993.42;;;34.10;24.04
47082;BME280;33066;49.296;14.470;2022-07-23T10:36:44;96990.65;;;34.01;23.92
47082;BME280;33066;49.296;14.470;2022-07-23T10:39:08;96990.32;;;33.95;23.94
47082;BME280;33066;49.296;14.470;2022-07-23T10:41:32;96989.25;;;34.63;23.77
47082;BME280;33066;49.296;14.470;2022-07-23T10:44:07;96990.46;;;34.96;22.52
47082;BME280;33066;49.296;14.470;2022-07-23T10:46:22;96991.38;;;35.19;21.86
47082;BME280;33066;49.296;14.470;2022-07-23T10:51:13;96981.74;;;35.24;21.54
47082;BME280;33066;49.296;14.470;2022-07-23T10:53:53;96983.10;;;35.75;21.72
47082;BME280;33066;49.296;14.470;2022-07-23T10:56:03;96974.92;;;35.81;21.17
47082;BME280;33066;49.296;14.470;2022-07-23T11:00:54;96967.96;;;35.76;20.63
47082;BME280;33066;49.296;14.470;2022-07-23T11:03:29;96972.49;;;35.38;19.94
47082;BME280;33066;49.296;14.470;2022-07-23T11:05:46;96976.38;;;34.89;20.53
47082;BME280;33066;49.296;14.470;2022-07-23T11:08:15;96982.11;;;35.01;20.18
47082;BME280;33066;49.296;14.470;2022-07-23T11:10:39;96981.45;;;34.57;20.67
47082;BME280;33066;49.296;14.470;2022-07-23T11:15:28;96988.75;;;34.85;21.02
47082;BME280;33066;49.296;14.470;2022-07-23T11:18:00;96988.98;;;34.86;21.31
47082;BME280;33066;49.296;14.470;2022-07-23T11:20:21;96980.24;;;34.87;20.28
47082;BME280;33066;49.296;14.470;2022-07-23T11:22:50;96984.42;;;34.58;20.46
47082;BME280;33066;49.296;14.470;2022-07-23T11:25:11;96982.45;;;34.64;20.97
47082;BME280;33066;49.296;14.470;2022-07-23T11:27:37;96986.82;;;34.65;20.87
47082;BME280;33066;49.296;14.470;2022-07-23T11:30:01;96986.38;;;34.55;21.03
47082;BME280;33066;49.296;14.470;2022-07-23T11:32:34;96992.75;;;34.44;20.90
47082;BME280;33066;49.296;14.470;2022-07-23T11:34:52;96998.28;;;34.29;21.52
47082;BME280;33066;49.296;14.470;2022-07-23T11:37:29;96997.89;;;34.16;21.37
47082;BME280;33066;49.296;14.470;2022-07-23T11:39:46;97007.37;;;34.11;21.45
47082;BME280;33066;49.296;14.470;2022-07-23T11:42:10;97000.77;;;34.05;21.81
47082;BME280;33066;49.296;14.470;2022-07-23T11:44:36;96994.90;;;34.66;21.22
47082;BME280;33066;49.296;14.470;2022-07-23T11:47:01;96995.94;;;35.51;20.99
47082;BME280;33066;49.296;14.470;2022-07-23T11:49:26;96983.64;;;35.42;21.19
47082;BME280;33066;49.296;14.470;2022-07-23T11:52:02;96990.60;;;35.82;20.32
47082;BME280;33066;49.296;14.470;2022-07-23T11:54:16;96984.44;;;35.43;20.79
47082;BME280;33066;49.296;14.470;2022-07-23T11:59:07;96984.12;;;35.39;20.82
47082;BME280;33066;49.296;14.470;2022-07-23T12:01:32;96983.69;;;35.88;20.55
47082;BME280;33066;49.296;14.470;2022-07-23T12:03:57;96981.64;;;35.85;20.84
47082;BME280;33066;49.296;14.470;2022-07-23T12:06:22;96975.40;;;35.50;20.53
47082;BME280;33066;49.296;14.470;2022-07-23T12:08:49;96979.87;;;35.49;20.53
47082;BME280;33066;49.296;14.470;2022-07-23T12:11:13;96984.84;;;35.48;20.82
47082;BME280;33066;49.296;14.470;2022-07-23T12:13:38;96984.42;;;35.38;20.74
47082;BME280;33066;49.296;14.470;2022-07-23T12:16:04;96989.46;;;35.20;21.04
47082;BME280;33066;49.296;14.470;2022-07-23T12:18:30;96992.21;;;34.57;21.28
47082;BME280;33066;49.296;14.470;2022-07-23T12:20:57;96996.84;;;34.46;21.81
47082;BME280;33066;49.296;14.470;2022-07-23T12:23:22;96995.11;;;34.53;22.07
47082;BME280;33066;49.296;14.470;2022-07-23T12:25:48;96995.77;;;34.41;22.30
47082;BME280;33066;49.296;14.470;2022-07-23T12:28:13;96997.48;;;33.99;22.37
47082;BME280;33066;49.296;14.470;2022-07-23T12:30:39;96997.12;;;33.72;22.46
47082;BME280;33066;49.296;14.470;2022-07-23T12:33:04;97000.78;;;33.64;22.91
47082;BME280;33066;49.296;14.470;2022-07-23T12:35:34;96999.55;;;33.09;23.43
47082;BME280;33066;49.296;14.470;2022-07-23T12:38:00;96998.82;;;33.09;23.66
47082;BME280;33066;49.296;14.470;2022-07-23T12:40:23;96999.79;;;33.08;23.81
47082;BME280;33066;49.296;14.470;2022-07-23T12:42:46;96999.79;;;32.70;24.14
47082;BME280;33066;49.296;14.470;2022-07-23T12:45:11;97005.72;;;32.83;24.29
47082;BME280;33066;49.296;14.470;2022-07-23T12:50:02;97011.08;;;32.77;24.48
47082;BME280;33066;49.296;14.470;2022-07-23T12:52:29;97006.55;;;32.59;24.40
47082;BME280;33066;49.296;14.470;2022-07-23T12:54:53;97011.36;;;32.97;24.41
47082;BME280;33066;49.296;14.470;2022-07-23T12:57:18;97008.30;;;32.91;24.24